EFKK

Kruunupyy Airport

Kokkola / Kruunupyy, Finland
METAR EFKK 241150Z 36006KT CAVOK M13/M16 Q1042
Observed Flight Rules
Feb-24 @ 11:50 UTC (34 minutes ago) Visual Flight Rules
Wind Visibility Clouds
360° at 6 knots 10,000+ meters
  • Clear skies
Temperatures Readings
Current -13°C / 9°F
Dewpoint -16°C / 3°F
Humidity 78%
Altimeter 30.77" Hg
Pressure 1042 hPa
Elevation 25
METAR EFKK 241150Z 36006KT CAVOK M13/M16 Q1042
Observed Flight Rules
Feb-24 @ 11:50 UTC
(34 minutes ago)
VFR
Wind Visibility
360° at 6 knots 10,000+ meters
Clouds
  • Clear skies
Temperature Dewpoint
-13°C / 9°F -16°C / 3°F
Humidity Altimeter Pressure
78% 30.77" Hg 1042 hPa